KDMN/DMN METAR and TAF weather

Enter ICAO airport designator
Station Type Date Time Source
KDMN METAR 2021/10/20 07:53 UTC NOAA

KDMN 200753Z AUTO 28003KT 10SM CLR 09/00 A3014 RMK AO2 SLP154 T00890000


Station Type Date Time Source
KDMN Decoded METAR 2021/10/20 07:53 UTC NOAA

DEMING MUNICIPAL AIRPORT, NM, United States (KDMN) 32-16N 107-43W 1311M
Oct 20, 2021 - 03:53 AM EDT / 2021.10.20 0753 UTC
Wind: from the W (280 degrees) at 3 MPH (3 KT):0
Visibility: 10 mile(s):0
Sky conditions: clear
Temperature: 48.0 F (8.9 C)
Dew Point: 32.0 F (0.0 C)
Relative Humidity: 53%
Pressure (altimeter): 30.14 in. Hg (1020 hPa)
ob: KDMN 200753Z AUTO 28003KT 10SM CLR 09/00 A3014 RMK AO2 SLP154 T00890000
cycle: 8

Station Type Date Time Source
KDMN TAF 2021/10/20 06:22 UTC NOAA

TAF KDMN 200520Z 2006/2106 30008KT P6SM SKC
FM201600 25007KT P6SM SKC

Example: see airport list